createdAt,value
2017-12-04T00:02:06.615Z,0.90
2017-12-04T00:04:34.267Z,0.80
2017-12-04T00:07:01.803Z,0.90
2017-12-04T00:09:29.386Z,0.90
2017-12-04T00:11:56.916Z,0.80
2017-12-04T00:14:25.221Z,0.80
2017-12-04T00:16:52.789Z,0.80
2017-12-04T00:19:20.360Z,0.80
2017-12-04T00:21:47.895Z,0.80
2017-12-04T00:24:15.469Z,0.80
2017-12-04T00:26:43.008Z,0.80
2017-12-04T00:29:10.585Z,0.80
2017-12-04T00:31:38.120Z,0.80
2017-12-04T00:34:05.690Z,0.80
2017-12-04T00:36:33.230Z,0.80
2017-12-04T00:39:01.580Z,0.80
2017-12-04T00:41:29.112Z,0.80
2017-12-04T00:43:56.645Z,0.80
2017-12-04T00:46:24.235Z,0.80
2017-12-04T00:48:51.759Z,0.80
2017-12-04T00:51:19.328Z,0.80
2017-12-04T00:53:46.901Z,0.80
2017-12-04T00:56:14.431Z,0.90
2017-12-04T00:58:42.016Z,0.80
2017-12-04T01:01:09.552Z,0.80
2017-12-04T01:03:37.079Z,0.80
2017-12-04T01:06:04.652Z,0.80
2017-12-04T01:08:32.943Z,0.80
2017-12-04T01:11:00.526Z,0.80
2017-12-04T01:13:28.058Z,0.80
2017-12-04T01:16:01.016Z,0.80
2017-12-04T01:18:28.549Z,0.80
2017-12-04T01:20:56.120Z,0.80
2017-12-04T01:23:23.704Z,0.80
2017-12-04T01:25:52.041Z,0.80
2017-12-04T01:28:19.615Z,0.80
2017-12-04T01:30:47.151Z,0.80
2017-12-04T01:33:14.688Z,0.90
2017-12-04T01:35:42.257Z,0.80
2017-12-04T01:38:09.790Z,0.90
2017-12-04T01:40:38.132Z,0.90
2017-12-04T01:43:05.673Z,0.80
2017-12-04T01:45:33.240Z,0.80
2017-12-04T01:48:00.774Z,0.80
2017-12-04T01:50:28.344Z,0.80
2017-12-04T01:52:55.910Z,0.90
2017-12-04T01:55:23.449Z,0.90
2017-12-04T01:57:51.017Z,0.90
2017-12-04T02:00:18.599Z,0.90
2017-12-04T02:02:46.133Z,0.90
2017-12-04T02:05:13.668Z,0.90
2017-12-04T02:07:42.022Z,0.90
2017-12-04T02:10:11.052Z,0.80
2017-12-04T02:12:38.592Z,0.80
2017-12-04T02:15:06.940Z,0.80
2017-12-04T02:17:34.471Z,0.80
2017-12-04T02:20:02.007Z,0.90
2017-12-04T02:22:29.570Z,0.90
2017-12-04T02:24:57.142Z,0.90
2017-12-04T02:27:25.477Z,0.90
2017-12-04T02:29:53.780Z,0.90
2017-12-04T02:32:21.352Z,0.90
2017-12-04T02:34:48.890Z,0.90
2017-12-04T02:37:17.225Z,0.90
2017-12-04T02:39:44.767Z,0.90
2017-12-04T02:42:12.297Z,0.90
2017-12-04T02:44:39.871Z,0.90
2017-12-04T02:47:07.401Z,0.90
2017-12-04T02:49:35.740Z,0.90
2017-12-04T02:52:04.045Z,0.90
2017-12-04T02:54:32.379Z,0.90
2017-12-04T02:56:59.913Z,0.80
2017-12-04T02:59:27.484Z,0.90
2017-12-04T03:01:55.011Z,0.90
2017-12-04T03:04:23.343Z,0.90
2017-12-04T03:06:50.912Z,0.80
2017-12-04T03:09:18.500Z,0.90
2017-12-04T03:11:47.622Z,0.90
2017-12-04T03:14:15.158Z,0.80
2017-12-04T03:16:43.504Z,0.90
2017-12-04T03:19:11.040Z,0.80
2017-12-04T03:21:38.572Z,0.90
2017-12-04T03:24:06.152Z,0.80
2017-12-04T03:26:33.684Z,0.90
2017-12-04T03:29:01.224Z,0.90
2017-12-04T03:31:29.551Z,0.90
2017-12-04T03:33:57.085Z,0.90
2017-12-04T03:36:24.680Z,0.90
2017-12-04T03:38:52.221Z,0.90
2017-12-04T03:41:19.757Z,0.90
2017-12-04T03:43:48.097Z,0.90
2017-12-04T03:46:16.404Z,0.90
2017-12-04T03:48:44.732Z,0.90
2017-12-04T03:51:12.269Z,0.90
2017-12-04T03:53:39.848Z,0.90
2017-12-04T03:56:07.381Z,0.90
2017-12-04T03:58:34.917Z,0.90
2017-12-04T04:01:03.247Z,0.90
2017-12-04T04:03:30.778Z,0.90
2017-12-04T04:05:58.352Z,0.90
2017-12-04T04:08:25.892Z,0.90
2017-12-04T04:10:53.478Z,0.90
2017-12-04T04:13:21.014Z,0.90
2017-12-04T04:15:48.548Z,0.90
2017-12-04T04:18:16.875Z,0.90
2017-12-04T04:20:44.409Z,0.80
2017-12-04T04:23:11.981Z,0.90
2017-12-04T04:25:39.508Z,0.90
2017-12-04T04:28:07.844Z,0.90
2017-12-04T04:30:35.377Z,0.90
2017-12-04T04:33:02.954Z,0.90
2017-12-04T04:35:30.486Z,0.90
2017-12-04T04:37:58.064Z,0.90
2017-12-04T04:40:25.608Z,0.90
2017-12-04T04:42:53.180Z,0.90
2017-12-04T04:45:20.721Z,0.90
2017-12-04T04:47:48.299Z,0.90
2017-12-04T04:50:15.836Z,0.90
2017-12-04T04:52:43.373Z,0.90
2017-12-04T04:55:11.708Z,0.90
2017-12-04T04:57:39.236Z,0.90
2017-12-04T05:00:06.800Z,0.90
2017-12-04T05:02:34.385Z,0.90
2017-12-04T05:05:01.961Z,0.90
2017-12-04T05:07:29.488Z,0.90
2017-12-04T05:09:57.061Z,0.90
2017-12-04T05:12:24.591Z,0.90
2017-12-04T05:14:52.170Z,0.90
2017-12-04T05:17:19.701Z,0.90
2017-12-04T05:19:48.042Z,0.90
2017-12-04T05:22:15.580Z,0.90
2017-12-04T05:24:43.160Z,0.90
2017-12-04T05:27:10.696Z,0.90
2017-12-04T05:29:38.269Z,0.90
2017-12-04T05:32:05.803Z,0.90
2017-12-04T05:34:33.407Z,0.90
2017-12-04T05:37:00.941Z,0.90
2017-12-04T05:39:28.520Z,0.90
2017-12-04T05:41:56.058Z,0.90
2017-12-04T05:44:23.640Z,0.90
2017-12-04T05:46:51.172Z,0.90
2017-12-04T05:49:18.747Z,0.90
2017-12-04T05:51:46.284Z,0.90
2017-12-04T05:54:13.868Z,0.90
2017-12-04T05:56:41.402Z,0.90
2017-12-04T05:59:08.982Z,0.90
2017-12-04T06:01:36.526Z,0.90
2017-12-04T06:04:04.117Z,0.90
2017-12-04T06:06:31.654Z,0.90
2017-12-04T06:08:59.188Z,0.90
2017-12-04T06:11:27.068Z,0.90
2017-12-04T06:13:54.608Z,0.90
2017-12-04T06:16:22.184Z,0.90
2017-12-04T06:18:50.484Z,0.90
2017-12-04T06:21:18.066Z,0.90
2017-12-04T06:23:45.611Z,0.90
2017-12-04T06:26:13.193Z,0.90
2017-12-04T06:28:41.488Z,0.90
2017-12-04T06:31:09.183Z,0.90
2017-12-04T06:33:36.749Z,1.00
2017-12-04T06:36:04.335Z,1.00
2017-12-04T06:38:31.872Z,1.00
2017-12-04T06:40:59.450Z,1.00
2017-12-04T06:43:26.987Z,0.90
2017-12-04T06:45:54.561Z,1.00
2017-12-04T06:48:22.096Z,1.00
2017-12-04T06:50:49.675Z,1.00
2017-12-04T06:53:17.202Z,1.00
2017-12-04T06:55:44.771Z,1.00
2017-12-04T06:58:12.299Z,1.00
2017-12-04T07:00:40.644Z,1.00
2017-12-04T07:03:08.182Z,1.00
2017-12-04T07:05:44.742Z,1.00
2017-12-04T07:08:12.282Z,1.00
2017-12-04T07:10:39.862Z,1.00
2017-12-04T07:13:07.403Z,1.00
2017-12-04T07:15:34.985Z,1.00
2017-12-04T07:18:02.524Z,1.00
2017-12-04T07:20:30.100Z,1.00
2017-12-04T07:22:57.637Z,1.00
2017-12-04T07:25:25.217Z,1.00
2017-12-04T07:27:52.756Z,1.00
2017-12-04T07:30:20.338Z,1.00
2017-12-04T07:32:47.889Z,1.00
2017-12-04T07:35:15.491Z,1.00
2017-12-04T07:37:43.025Z,1.00
2017-12-04T07:40:10.646Z,1.00
2017-12-04T07:42:38.200Z,1.00
2017-12-04T07:45:06.549Z,1.00
2017-12-04T07:47:34.081Z,1.00
2017-12-04T07:50:01.666Z,1.00
2017-12-04T07:52:29.204Z,1.00
2017-12-04T07:54:56.782Z,1.00
2017-12-04T07:57:24.319Z,1.00
2017-12-04T07:59:51.899Z,1.00
2017-12-04T08:02:19.453Z,1.00
2017-12-04T08:04:47.035Z,1.00
2017-12-04T08:07:14.568Z,1.00
2017-12-04T08:09:42.137Z,1.00
2017-12-04T08:12:09.672Z,1.00
2017-12-04T08:14:37.261Z,1.00
2017-12-04T08:17:04.792Z,1.00
2017-12-04T08:19:32.329Z,1.10
2017-12-04T08:21:59.909Z,1.10
2017-12-04T08:24:27.461Z,1.10
2017-12-04T08:26:55.036Z,1.10
2017-12-04T08:29:22.572Z,1.10
2017-12-04T08:31:50.148Z,1.10
2017-12-04T08:34:17.678Z,1.10
2017-12-04T08:36:45.262Z,1.10
2017-12-04T08:39:12.796Z,1.10
2017-12-04T08:41:40.379Z,1.10
2017-12-04T08:44:07.911Z,1.10
2017-12-04T08:46:36.243Z,1.10
2017-12-04T08:49:03.776Z,1.10
2017-12-04T08:51:31.355Z,1.10
2017-12-04T08:53:58.883Z,1.10
2017-12-04T08:56:26.602Z,1.10
2017-12-04T08:58:54.132Z,1.10
2017-12-04T09:01:21.708Z,1.10
2017-12-04T09:03:49.244Z,1.20
2017-12-04T09:06:16.811Z,1.10
2017-12-04T09:08:44.350Z,1.20
2017-12-04T09:11:11.928Z,1.10
2017-12-04T09:13:39.465Z,1.20
2017-12-04T09:16:07.053Z,1.20
2017-12-04T09:18:34.591Z,1.20
2017-12-04T09:21:02.117Z,1.20
2017-12-04T09:23:30.473Z,1.20
2017-12-04T09:25:58.053Z,1.20
2017-12-04T09:28:26.401Z,1.20
2017-12-04T09:30:53.938Z,1.20
2017-12-04T09:33:21.513Z,1.30
2017-12-04T09:35:49.045Z,1.20
2017-12-04T09:38:16.623Z,1.30
2017-12-04T09:40:44.156Z,1.20
2017-12-04T09:43:11.792Z,1.30
2017-12-04T09:45:39.315Z,1.30
2017-12-04T09:48:06.912Z,1.20
2017-12-04T09:50:35.275Z,1.30
2017-12-04T09:53:02.819Z,1.20
2017-12-04T09:55:30.453Z,1.30
2017-12-04T09:57:58.179Z,1.30
2017-12-04T10:00:26.531Z,1.30
2017-12-04T10:02:54.353Z,1.30
2017-12-04T10:05:21.884Z,1.30
2017-12-04T10:07:50.186Z,1.30
2017-12-04T10:10:17.761Z,1.30
2017-12-04T10:12:45.300Z,1.30
2017-12-04T10:15:12.880Z,1.30
2017-12-04T10:17:40.411Z,1.30
2017-12-04T10:20:07.988Z,1.30
2017-12-04T10:22:35.525Z,1.30
2017-12-04T10:25:03.100Z,1.30
2017-12-04T10:27:30.629Z,1.30
2017-12-04T10:29:58.970Z,1.30
2017-12-04T10:32:26.509Z,1.30
2017-12-04T10:34:54.079Z,1.40
2017-12-04T10:37:21.604Z,1.40
2017-12-04T10:39:49.190Z,1.40
2017-12-04T10:42:16.723Z,1.40
2017-12-04T10:44:44.301Z,1.40
2017-12-04T10:47:11.861Z,1.30
2017-12-04T10:49:39.445Z,1.30
2017-12-04T10:52:06.975Z,1.30
2017-12-04T10:54:34.559Z,1.40
2017-12-04T10:57:02.100Z,1.50
2017-12-04T10:59:29.676Z,1.50
2017-12-04T11:01:57.209Z,1.50
2017-12-04T11:04:24.792Z,1.50
2017-12-04T11:06:52.324Z,1.50
2017-12-04T11:09:19.908Z,1.60
2017-12-04T11:11:47.537Z,1.60
2017-12-04T11:14:15.085Z,1.50
2017-12-04T11:16:43.382Z,1.60
2017-12-04T11:19:10.962Z,1.60
2017-12-04T11:21:38.492Z,1.60
2017-12-04T11:24:06.073Z,1.60
2017-12-04T11:26:33.596Z,1.60
2017-12-04T11:29:01.935Z,1.60
2017-12-04T11:31:29.462Z,1.50
2017-12-04T11:33:57.102Z,1.60
2017-12-04T11:36:24.674Z,1.60
2017-12-04T11:38:52.256Z,1.60
2017-12-04T11:41:19.788Z,1.60
2017-12-04T11:43:47.360Z,1.60
2017-12-04T11:46:14.932Z,1.60
2017-12-04T11:48:42.486Z,1.60
2017-12-04T11:51:10.067Z,1.60
2017-12-04T11:53:37.591Z,1.60
2017-12-04T11:56:05.165Z,1.60
2017-12-04T11:58:32.691Z,1.60
2017-12-04T12:01:01.032Z,1.70
2017-12-04T12:03:28.563Z,1.60
2017-12-04T12:05:56.136Z,1.60
2017-12-04T12:08:23.663Z,1.70
2017-12-04T12:10:51.229Z,1.70
2017-12-04T12:13:18.763Z,1.60
2017-12-04T12:15:47.105Z,1.60
2017-12-04T12:18:14.633Z,1.60
2017-12-04T12:32:33.455Z,1.80
2017-12-04T12:35:01.027Z,1.80
2017-12-04T12:37:28.555Z,1.90
2017-12-04T12:39:56.125Z,2.10
2017-12-04T12:42:23.652Z,2.10
2017-12-04T12:44:51.229Z,2.20
2017-12-04T12:47:18.770Z,2.20
2017-12-04T12:49:46.344Z,2.20
2017-12-04T12:52:13.875Z,2.30
2017-12-04T12:54:41.450Z,2.20
2017-12-04T12:57:09.049Z,2.30
2017-12-04T12:59:36.616Z,2.30
2017-12-04T13:02:04.144Z,2.30
2017-12-04T13:04:31.713Z,2.30
2017-12-04T13:06:59.237Z,2.40
2017-12-04T13:09:26.810Z,2.40
2017-12-04T13:11:54.338Z,2.40
2017-12-04T13:14:21.966Z,2.40
2017-12-04T13:16:49.487Z,2.40
2017-12-04T13:19:17.012Z,2.40
2017-12-04T13:21:45.426Z,2.40
2017-12-04T13:24:12.957Z,2.40
2017-12-04T13:26:41.671Z,2.50
2017-12-04T13:29:09.213Z,2.50
2017-12-04T13:31:36.789Z,2.50
2017-12-04T13:34:16.312Z,2.50
2017-12-04T13:36:43.882Z,2.60
2017-12-04T13:39:11.407Z,2.50
2017-12-04T13:41:39.749Z,2.60
2017-12-04T13:44:07.275Z,2.60
2017-12-04T13:46:34.853Z,2.60
2017-12-04T13:49:02.397Z,2.60
2017-12-04T13:51:29.968Z,2.60
2017-12-04T13:53:57.524Z,2.60
2017-12-04T13:56:25.296Z,2.40
2017-12-04T13:58:52.825Z,1.90
2017-12-04T14:01:20.409Z,1.80
2017-12-04T14:03:47.971Z,1.80
2017-12-04T14:06:15.550Z,1.80
2017-12-04T14:08:43.078Z,1.80
2017-12-04T14:11:10.657Z,1.80
2017-12-04T14:13:38.188Z,1.90
2017-12-04T14:16:05.766Z,2.00
2017-12-04T14:18:33.295Z,2.00
2017-12-04T14:21:01.641Z,2.00
2017-12-04T14:23:29.175Z,2.00
2017-12-04T14:25:56.702Z,2.00
2017-12-04T14:28:24.272Z,2.10
2017-12-04T14:30:51.851Z,2.10
2017-12-04T14:33:19.380Z,2.10
2017-12-04T14:35:46.960Z,2.10
2017-12-04T14:38:14.484Z,2.10
2017-12-04T14:40:42.824Z,2.10
2017-12-04T14:43:10.358Z,2.10
2017-12-04T14:45:37.933Z,2.10
2017-12-04T14:48:05.461Z,2.00
2017-12-04T14:50:33.047Z,2.10
2017-12-04T14:53:00.584Z,2.10
2017-12-04T14:55:28.120Z,2.10
2017-12-04T14:57:56.455Z,2.10
2017-12-04T15:00:23.986Z,2.10
2017-12-04T15:02:51.561Z,2.10
2017-12-04T15:05:19.096Z,2.10
2017-12-04T15:07:46.672Z,2.10
2017-12-04T15:10:14.205Z,2.10
2017-12-04T15:12:41.776Z,2.10
2017-12-04T15:15:09.309Z,2.10
2017-12-04T15:17:37.656Z,2.10
2017-12-04T15:20:05.188Z,2.10
2017-12-04T15:22:32.773Z,2.10
2017-12-04T15:25:00.309Z,2.10
2017-12-04T15:27:27.954Z,2.10
2017-12-04T15:29:55.491Z,2.10
2017-12-04T15:32:23.786Z,2.10
2017-12-04T15:34:51.462Z,2.10
2017-12-04T15:37:18.991Z,2.10
2017-12-04T15:39:47.327Z,2.00
2017-12-04T15:42:14.855Z,2.00
2017-12-04T15:44:42.424Z,2.00
2017-12-04T15:47:09.956Z,2.10
2017-12-04T15:49:37.535Z,2.00
2017-12-04T15:52:05.096Z,2.10
2017-12-04T15:54:32.673Z,2.00
2017-12-04T15:57:00.199Z,2.00
2017-12-04T15:59:27.778Z,2.10
2017-12-04T16:01:55.312Z,2.00
2017-12-04T16:04:22.891Z,2.00
2017-12-04T16:06:50.415Z,2.00
2017-12-04T16:09:18.755Z,2.00
2017-12-04T16:11:46.288Z,2.00
2017-12-04T16:14:13.871Z,2.00
2017-12-04T16:16:41.408Z,2.00
2017-12-04T16:19:08.937Z,2.00
2017-12-04T16:21:37.283Z,2.00
2017-12-04T16:24:04.817Z,2.00
2017-12-04T16:26:32.398Z,2.00
2017-12-04T16:28:59.926Z,2.00
2017-12-04T16:31:27.508Z,2.00
2017-12-04T16:33:55.036Z,2.00
2017-12-04T16:36:22.600Z,2.00
2017-12-04T16:38:50.131Z,2.00
2017-12-04T16:41:18.539Z,2.00
2017-12-04T16:43:46.069Z,2.00
2017-12-04T16:46:14.409Z,2.00
2017-12-04T16:48:41.945Z,1.90
2017-12-04T16:51:09.520Z,2.00
2017-12-04T16:53:37.100Z,2.00
2017-12-04T16:56:04.631Z,2.00
2017-12-04T16:58:32.173Z,2.00
2017-12-04T17:00:59.747Z,2.00
2017-12-04T17:03:27.282Z,2.00
2017-12-04T17:05:54.863Z,2.00
2017-12-04T17:08:22.400Z,2.00
2017-12-04T17:10:49.982Z,2.00
2017-12-04T17:13:17.526Z,2.00
2017-12-04T17:15:45.102Z,2.00
2017-12-04T17:18:12.631Z,2.00
2017-12-04T17:20:40.210Z,2.00
2017-12-04T17:23:07.742Z,2.20
2017-12-04T17:25:35.337Z,2.30
2017-12-04T17:28:02.865Z,2.00
2017-12-04T17:30:30.910Z,2.00
2017-12-04T17:32:59.216Z,2.00
2017-12-04T17:35:26.789Z,2.00
2017-12-04T17:37:54.322Z,2.00
2017-12-04T17:40:22.667Z,2.00
2017-12-04T17:42:50.200Z,2.00
2017-12-04T17:45:17.782Z,2.00
2017-12-04T17:47:45.413Z,2.00
2017-12-04T17:50:12.994Z,2.00
2017-12-04T17:52:40.528Z,2.00
2017-12-04T17:55:08.120Z,2.00
2017-12-04T17:57:35.652Z,2.00
2017-12-04T18:00:03.174Z,2.00
2017-12-04T18:02:31.518Z,2.00
2017-12-04T18:04:59.104Z,2.00
2017-12-04T18:07:27.399Z,1.90
2017-12-04T18:09:55.739Z,2.00
2017-12-04T18:12:24.046Z,1.90
2017-12-04T18:14:52.383Z,1.90
2017-12-04T18:17:19.916Z,1.90
2017-12-04T18:19:47.501Z,2.00
2017-12-04T18:22:15.035Z,2.00
2017-12-04T18:24:42.682Z,2.00
2017-12-04T18:27:10.965Z,2.00
2017-12-04T18:29:38.637Z,2.00
2017-12-04T18:32:06.232Z,1.90
2017-12-04T18:34:34.569Z,1.90
2017-12-04T18:37:02.095Z,1.90
2017-12-04T18:39:30.431Z,2.00
2017-12-04T18:41:57.965Z,1.90
2017-12-04T18:44:25.545Z,1.90
2017-12-04T18:46:53.203Z,2.00
2017-12-04T18:49:20.773Z,1.90
2017-12-04T18:51:48.303Z,1.90
2017-12-04T18:54:15.833Z,1.90
2017-12-04T18:56:44.176Z,1.90
2017-12-04T18:59:11.810Z,1.90
2017-12-04T19:01:39.387Z,1.90
2017-12-04T19:04:06.927Z,1.90
2017-12-04T19:06:34.505Z,1.90
2017-12-04T19:09:02.042Z,1.90
2017-12-04T19:11:29.620Z,1.90
2017-12-04T19:13:57.150Z,1.90
2017-12-04T19:16:24.725Z,1.90
2017-12-04T19:18:52.286Z,1.90
2017-12-04T19:21:19.855Z,1.90
2017-12-04T19:23:47.816Z,1.90
2017-12-04T19:26:15.386Z,1.90
2017-12-04T19:28:42.930Z,1.90
2017-12-04T19:31:10.509Z,1.90
2017-12-04T19:33:38.040Z,1.90
2017-12-04T19:36:05.618Z,1.90
2017-12-04T19:38:33.154Z,1.90
2017-12-04T19:41:00.731Z,1.90
2017-12-04T19:43:28.270Z,1.90
2017-12-04T19:45:55.851Z,1.90
2017-12-04T19:48:23.388Z,1.90
2017-12-04T19:50:50.974Z,2.00
2017-12-04T19:53:18.508Z,1.90
2017-12-04T19:55:46.093Z,1.90
2017-12-04T19:58:13.633Z,1.90
2017-12-04T20:00:41.350Z,1.90
2017-12-04T20:03:08.877Z,1.90
2017-12-04T20:05:36.412Z,1.90
2017-12-04T20:08:03.986Z,1.90
2017-12-04T20:10:31.569Z,1.90
2017-12-04T20:12:59.136Z,1.90
2017-12-04T20:15:26.664Z,1.90
2017-12-04T20:17:54.286Z,1.90
2017-12-04T20:20:22.586Z,1.90
2017-12-04T20:22:50.162Z,1.90
2017-12-04T20:25:17.692Z,1.90
2017-12-04T20:27:46.037Z,1.90
2017-12-04T20:30:13.567Z,1.90
2017-12-04T20:32:41.140Z,1.90
2017-12-04T20:35:08.676Z,1.90
2017-12-04T20:37:36.257Z,1.90
2017-12-04T20:40:03.792Z,1.90
2017-12-04T20:42:31.328Z,1.90
2017-12-04T20:44:59.739Z,1.90
2017-12-04T20:47:27.271Z,1.90
2017-12-04T20:49:55.608Z,1.90
2017-12-04T20:52:23.142Z,1.90
2017-12-04T20:54:50.727Z,1.90
2017-12-04T20:57:18.262Z,1.90
2017-12-04T20:59:45.844Z,1.90
2017-12-04T21:02:13.475Z,1.90
2017-12-04T21:04:41.050Z,1.90
2017-12-04T21:07:08.589Z,1.90
2017-12-04T21:09:48.096Z,1.90
2017-12-04T21:12:16.396Z,1.90
2017-12-04T21:14:55.852Z,1.90
2017-12-04T21:17:34.371Z,1.90
2017-12-04T21:20:05.419Z,1.90
2017-12-04T21:22:32.951Z,1.90
2017-12-04T21:25:00.536Z,1.90
2017-12-04T21:27:28.078Z,1.90
2017-12-04T21:29:55.660Z,1.90
2017-12-04T21:32:23.196Z,1.90
2017-12-04T21:34:50.781Z,1.90
2017-12-04T21:37:18.313Z,1.90
2017-12-04T21:39:45.905Z,1.90
2017-12-04T21:42:13.435Z,1.90
2017-12-04T21:44:41.011Z,1.90
2017-12-04T21:47:08.553Z,1.90
2017-12-04T21:49:36.143Z,1.90
2017-12-04T21:52:03.676Z,1.90
2017-12-04T21:54:31.213Z,1.90
2017-12-04T21:56:59.556Z,1.90
2017-12-04T21:59:27.091Z,1.90
2017-12-04T22:01:54.672Z,1.90
2017-12-04T22:04:22.214Z,1.90
2017-12-04T22:06:49.792Z,1.90
2017-12-04T22:09:18.846Z,1.90
2017-12-04T22:11:46.426Z,1.90
2017-12-04T22:14:13.965Z,1.90
2017-12-04T22:16:41.537Z,1.90
2017-12-04T22:19:09.071Z,2.00
2017-12-04T22:21:36.605Z,1.90
2017-12-04T22:24:04.948Z,1.90
2017-12-04T22:26:32.486Z,1.90
2017-12-04T22:29:00.059Z,1.90
2017-12-04T22:31:27.591Z,1.90
2017-12-04T22:33:55.167Z,1.90
2017-12-04T22:36:22.704Z,1.90
2017-12-04T22:38:50.282Z,1.90
2017-12-04T22:41:17.819Z,1.90
2017-12-04T22:43:45.399Z,1.90
2017-12-04T22:46:12.937Z,1.90
2017-12-04T22:48:40.516Z,1.90
2017-12-04T22:51:08.056Z,1.90
2017-12-04T22:53:35.629Z,1.90
2017-12-04T22:56:03.168Z,1.90
2017-12-04T22:58:31.519Z,2.00
2017-12-04T23:00:59.063Z,1.90
2017-12-04T23:03:26.638Z,1.90
2017-12-04T23:05:54.167Z,1.90
2017-12-04T23:08:21.759Z,1.90
2017-12-04T23:10:49.300Z,1.90
2017-12-04T23:13:16.832Z,1.90
2017-12-04T23:15:44.497Z,1.90
2017-12-04T23:18:12.076Z,1.90
2017-12-04T23:20:39.608Z,1.90
2017-12-04T23:23:07.187Z,1.90
2017-12-04T23:25:34.765Z,1.90
2017-12-04T23:28:02.300Z,1.90
2017-12-04T23:30:29.908Z,1.90
2017-12-04T23:32:57.438Z,1.90
2017-12-04T23:35:25.014Z,1.90
2017-12-04T23:37:52.548Z,1.90
2017-12-04T23:40:20.119Z,1.90
2017-12-04T23:42:47.651Z,1.90
2017-12-04T23:45:15.223Z,1.90
2017-12-04T23:47:42.756Z,1.90
2017-12-04T23:50:10.331Z,1.90
2017-12-04T23:52:37.859Z,1.90
2017-12-04T23:55:06.206Z,1.90
2017-12-04T23:57:33.740Z,1.90
